Brandy Camp, PA

3:54 AM EDT on July 23, 2014 (GMT -0400)
Emerald Estates (KPASAINT3) Elev 1870 ft | 41.43 °N, 78.60 °W | Change Station

Current weather conditions updated 7 seconds ago

Clear
Clear
67.4 °F
Feels Like 67.4 °F
N
0.0
Wind Variable Wind from North
Gusts 0.0 mph

Today is forecast to be Cooler than yesterday. Afternoon showers and thunderstorms.

Today
High -- | Low -- °F
--% Chance of Precip.
Yesterday
High -- | Low -- °F
Precip. -- in
6:01 AM 8:40 PM
Waning Crescent, 12% visible
Pressure 30.00 in
Visibility 10.0 miles
Clouds Clear
Dew Point 67 °F
Humidity 99%
Rainfall 0.00 in
Snow Depth Not available.
UV 0 out of 12
Pollen 6.20 out of 12
Air Quality Not available.
Flu Activity Not available.
METAR KDUJ 230656Z AUTO 22003KT 10SM CLR 22/19 A3004 RMK AO2 SLP157 T02170194

More Conditions Fewer Conditions

Pressure 30.00 in
Visibility 10.0 miles
Clouds Clear
Dew Point 67 °F
Humidity 99%
Rainfall 0.00 in
Snow Depth Not available.
UV 0 out of 12
Pollen 6.20 out of 12
Air Quality Not available.
Flu Activity Not available.
METAR KDUJ 230656Z AUTO 22003KT 10SM CLR 22/19 A3004 RMK AO2 SLP157 T02170194

More Conditions Fewer Conditions

10-Day Weather Forecast

Almanac

Astronomy

Jul. 23, 2014 Rise Set
Actual Time 6:01 AM EDT 8:40 PM EDT
Civil Twilight 5:29 AM EDT 9:12 PM EDT
Nautical Twilight 4:49 AM EDT 9:52 PM EDT
Astronomical Twilight 4:03 AM EDT 10:37 PM EDT
Moon 3:19 AM EDT 6:07 PM EDT
Length of Visible Light 15h 43m
Length of Day
14h 39m
Tomorrow will be 1m 48s shorter.
Waning Crescent, 12% of the Moon is Illuminated
Today
Waning Crescent
Jul 26
New
Aug 3
First Quarter
Aug 10
Full
Aug 17
Last Quarter

Today's Extremes

State Highs State Lows

Community

WunderPhotos

Upload Photos

1,736,529 photos uploaded!

Nearby

Snow Depth

Station Depth Elevation
No new snow has been reported.

Earthquake Activity

City Distance Mag. Time & Date
No recent earthquake activity has been reported nearby.
Minimum magnitude displayed is 2.5.

Coastal Water Temperatures

Place Temperature
No Stations Reporting

Nearby Weather Stations

Station Location Temp. Dew Point Humidity Wind Precip. Elev Updated Type
Emerald Estates, Saint Marys, PA 67.4 °F 67 °F 99% North  at  0.0 mph 0.00 in / hr 1870 ft 3:54 AM EDT Rapid Fire
Holly Terrace, Falls Creek, PA 63.0 °F 62 °F 97% WSW  at  0.0 mph 0.00 in / hr 1473 ft 3:54 AM EDT Rapid Fire
RAWS KENNEDY PRESERVE PA, Penfield, PA 70 °F 67 °F 91% WSW  at  7 mph 0.00 in / hr 2121 ft 3:08 AM EDT MADIS
Brookville, PA, Brookville, PA 65.3 °F 65 °F 98% SSW  at  0.0 mph 0.00 in / hr 1453 ft 3:54 AM EDT Rapid Fire

Show More Stations Show Fewer Stations